INFORMACIÓN METAR y TAF
METAR FOR GCGM
ADDS - METARS form results

(0655 UTC 24 June 2017)
Data provider http://aviationweather.gov/adds/metars/
 
METAR text: GCGM 240630Z 23005KT CAVOK 24/18 Q1017 RMK R09/VRB02KT ARP/26003KT
Conditions at: GCGM observed 0630 UTC 24 June 2017
Temperature: 24.0°C (75°F)
Dewpoint: 18.0°C (64°F) [RH = 69%]
Pressure (altimeter): 30.03 inches Hg (1017.0 mb)
Winds: from the SW (230 degrees) at 6 MPH (5 knots; 2.6 m/s)
Visibility: 6 or more miles (10+ km)
Ceiling: ceiling and visibility are OK
Clouds: unknown
Weather: no significant weather observed at this time

METAR text: GCGM 240600Z 23006KT CAVOK 24/19 Q1017 RMK R09/VRB01KT ARP/24003KT 190V290
Conditions at: GCGM observed 0600 UTC 24 June 2017
Temperature: 24.0°C (75°F)
Dewpoint: 19.0°C (66°F) [RH = 74%]
Pressure (altimeter): 30.03 inches Hg (1017.0 mb)
Winds: from the SW (230 degrees) at 7 MPH (6 knots; 3.1 m/s)
Visibility: 6 or more miles (10+ km)
Ceiling: ceiling and visibility are OK
Clouds: unknown
Weather: no significant weather observed at this time

 MAPA DE AEROPUERTO

 INFORMACIÓN DE PISTA
Pista 09 Longitud 4921 ft Ancho 98 ft
Elevación 716 ft Umbral desplazado 0 ft Rumbo de pista 81
Pista 27 Longitud 4921 ft Ancho 98 ft
Elevación 712 ft Umbral desplazado 0 ft Rumbo de pista 261

 FRECUANCIAS DEL AEROPUERTO
Tipo GND Nombre GND Frecuencia 121.7 MHZ
Tipo TWR Nombre TWR Frecuencia 118.4 MHZ

 RADIO AYUDAS DEL AEROPUERTO
Tipo VOR-DME Nombre La Gomera Frecuencia 116000 KHZ



Nuestro objetivo, educar a través de la simulación aérea y las redes de vuelo on line la cultura aeronáutica y el conocimiento técnico y operativo de volar un avión comercial; Ayudar en la formación de personas y o profesionales de aquellos que desea llegar a ser piloto privado o de líneas aéreas, militar, controlador aéreo, o conocer el mundo del tráfico aéreo, la simulación aérea, el vuelo, y todo lo referente con la aeronáutica.

Copyright 2006 - 2017
Clickair-Va desde 2006 son marcas registradas con permiso de Vueling S.A
Patrocinado por ACAE
Los foros de Clickair VA son foros privados para los miembros de la VA

Powered by Virtual Airlines Manager